createdAt,value
2023-04-20T00:02:04.133Z,13.90
2023-04-20T00:04:30.695Z,13.90
2023-04-20T00:06:57.186Z,14.00
2023-04-20T00:09:23.682Z,14.00
2023-04-20T00:11:50.154Z,13.90
2023-04-20T00:14:16.616Z,13.90
2023-04-20T00:16:43.126Z,14.00
2023-04-20T00:19:09.660Z,13.90
2023-04-20T00:21:36.142Z,14.00
2023-04-20T00:24:02.625Z,13.90
2023-04-20T00:26:29.103Z,13.90
2023-04-20T00:28:55.578Z,13.90
2023-04-20T00:31:22.061Z,13.90
2023-04-20T00:33:53.513Z,14.00
2023-04-20T00:36:19.994Z,13.90
2023-04-20T00:38:46.480Z,14.00
2023-04-20T00:41:12.970Z,13.90
2023-04-20T00:43:39.443Z,13.90
2023-04-20T00:46:11.424Z,14.00
2023-04-20T00:48:37.953Z,13.90
2023-04-20T00:51:04.444Z,13.90
2023-04-20T00:53:30.912Z,13.90
2023-04-20T00:55:57.387Z,13.90
2023-04-20T00:58:23.848Z,14.00
2023-04-20T01:00:50.327Z,14.00
2023-04-20T01:03:16.888Z,14.00
2023-04-20T01:05:43.456Z,14.00
2023-04-20T01:08:09.932Z,14.00
2023-04-20T01:10:36.432Z,13.90
2023-04-20T01:13:02.905Z,14.00
2023-04-20T01:15:29.378Z,14.00
2023-04-20T01:17:55.920Z,14.00
2023-04-20T01:20:22.419Z,13.90
2023-04-20T01:22:48.888Z,14.00
2023-04-20T01:25:15.391Z,14.00
2023-04-20T01:27:41.880Z,13.90
2023-04-20T01:30:08.359Z,13.90
2023-04-20T01:32:34.955Z,13.90
2023-04-20T01:35:01.634Z,13.90
2023-04-20T01:37:28.106Z,13.90
2023-04-20T01:39:54.621Z,13.90
2023-04-20T01:42:21.147Z,13.90
2023-04-20T01:44:47.615Z,13.90
2023-04-20T01:47:14.086Z,13.90
2023-04-20T01:49:40.561Z,13.90
2023-04-20T01:52:07.033Z,13.90
2023-04-20T01:54:33.517Z,13.90
2023-04-20T01:56:59.989Z,13.90
2023-04-20T01:59:26.452Z,13.90
2023-04-20T02:01:52.953Z,14.00
2023-04-20T02:04:23.444Z,13.90
2023-04-20T02:06:49.924Z,13.90
2023-04-20T02:09:16.556Z,13.90
2023-04-20T02:11:47.424Z,13.90
2023-04-20T02:14:13.895Z,13.90
2023-04-20T02:16:40.397Z,13.90
2023-04-20T02:19:06.891Z,13.90
2023-04-20T02:21:33.385Z,13.90
2023-04-20T02:23:59.841Z,13.90
2023-04-20T02:26:29.435Z,13.90
2023-04-20T02:28:55.902Z,13.90
2023-04-20T02:31:22.464Z,13.90
2023-04-20T02:33:48.982Z,13.90
2023-04-20T02:36:15.454Z,13.90
2023-04-20T02:38:41.934Z,13.90
2023-04-20T02:41:08.401Z,13.90
2023-04-20T02:43:34.889Z,13.90
2023-04-20T02:46:01.412Z,13.90
2023-04-20T02:48:27.899Z,13.90
2023-04-20T02:50:54.370Z,13.90
2023-04-20T02:53:23.471Z,13.90
2023-04-20T02:55:49.952Z,13.80
2023-04-20T02:58:16.429Z,13.80
2023-04-20T03:00:42.893Z,13.80
2023-04-20T03:03:11.697Z,13.80
2023-04-20T03:05:38.255Z,13.80
2023-04-20T03:08:04.736Z,13.80
2023-04-20T03:10:31.209Z,13.80
2023-04-20T03:12:57.697Z,13.80
2023-04-20T03:15:24.183Z,13.80
2023-04-20T03:17:50.725Z,13.80
2023-04-20T03:20:17.262Z,13.80
2023-04-20T03:22:43.735Z,13.70
2023-04-20T03:25:10.207Z,13.80
2023-04-20T03:27:36.731Z,13.70
2023-04-20T03:30:03.200Z,13.70
2023-04-20T03:32:32.085Z,13.70
2023-04-20T03:34:59.161Z,13.70
2023-04-20T03:37:29.670Z,13.70
2023-04-20T03:39:56.132Z,13.70
2023-04-20T03:42:22.607Z,13.70
2023-04-20T03:44:49.084Z,13.70
2023-04-20T03:47:15.590Z,13.70
2023-04-20T03:49:42.057Z,13.70
2023-04-20T03:52:08.518Z,13.70
2023-04-20T03:54:35.012Z,13.70
2023-04-20T03:57:01.490Z,13.70
2023-04-20T03:59:27.952Z,13.70
2023-04-20T04:01:54.436Z,13.70
2023-04-20T04:04:23.710Z,13.60
2023-04-20T04:06:50.476Z,13.70
2023-04-20T04:09:17.740Z,13.70
2023-04-20T04:11:44.385Z,13.70
2023-04-20T04:14:10.877Z,13.70
2023-04-20T04:16:37.366Z,13.70
2023-04-20T04:19:03.880Z,13.70
2023-04-20T04:21:30.347Z,13.70
2023-04-20T04:23:57.238Z,13.70
2023-04-20T04:26:23.700Z,13.70
2023-04-20T04:28:50.163Z,13.70
2023-04-20T04:31:16.673Z,13.70
2023-04-20T04:33:43.187Z,13.70
2023-04-20T04:36:09.656Z,13.70
2023-04-20T04:38:36.140Z,13.70
2023-04-20T04:41:02.623Z,13.70
2023-04-20T04:43:29.134Z,13.70
2023-04-20T04:45:55.677Z,13.70
2023-04-20T04:48:22.217Z,13.70
2023-04-20T04:50:53.652Z,13.70
2023-04-20T04:53:20.119Z,13.60
2023-04-20T04:55:46.619Z,13.60
2023-04-20T04:58:13.106Z,13.70
2023-04-20T05:00:39.592Z,13.70
2023-04-20T05:03:06.146Z,13.60
2023-04-20T05:05:32.701Z,13.60
2023-04-20T05:07:59.173Z,13.60
2023-04-20T05:10:25.650Z,13.60
2023-04-20T05:12:52.125Z,13.60
2023-04-20T05:15:18.605Z,13.60
2023-04-20T05:17:45.106Z,13.60
2023-04-20T05:20:11.625Z,13.60
2023-04-20T05:22:38.095Z,13.60
2023-04-20T05:25:04.576Z,13.60
2023-04-20T05:27:31.049Z,13.60
2023-04-20T05:30:06.441Z,13.60
2023-04-20T05:32:43.451Z,13.60
2023-04-20T05:35:09.945Z,13.70
2023-04-20T05:37:36.436Z,13.70
2023-04-20T05:40:02.922Z,13.60
2023-04-20T05:42:29.383Z,13.60
2023-04-20T05:44:55.870Z,13.60
2023-04-20T05:47:22.375Z,13.60
2023-04-20T05:49:48.869Z,13.70
2023-04-20T05:52:15.328Z,13.70
2023-04-20T05:54:41.816Z,13.70
2023-04-20T05:57:11.788Z,13.70
2023-04-20T05:59:38.258Z,13.60
2023-04-20T06:02:04.804Z,13.60
2023-04-20T06:04:31.538Z,13.60
2023-04-20T06:06:58.389Z,13.60
2023-04-20T06:09:24.877Z,13.70
2023-04-20T06:11:51.333Z,13.60
2023-04-20T06:14:17.807Z,13.60
2023-04-20T06:16:44.271Z,13.60
2023-04-20T06:19:10.740Z,13.70
2023-04-20T06:21:37.204Z,13.60
2023-04-20T06:24:03.677Z,13.70
2023-04-20T06:26:30.150Z,13.60
2023-04-20T06:28:56.616Z,13.60
2023-04-20T06:31:23.104Z,13.70
2023-04-20T06:33:49.594Z,13.60
2023-04-20T06:36:16.068Z,13.70
2023-04-20T06:38:42.540Z,13.70
2023-04-20T06:41:09.022Z,13.70
2023-04-20T06:43:35.561Z,13.70
2023-04-20T06:46:02.052Z,13.70
2023-04-20T06:48:32.592Z,13.70
2023-04-20T06:50:59.607Z,13.70
2023-04-20T06:53:26.078Z,13.70
2023-04-20T06:55:52.751Z,13.70
2023-04-20T06:58:19.224Z,13.70
2023-04-20T07:00:45.693Z,13.70
2023-04-20T07:03:12.421Z,13.70
2023-04-20T07:05:38.980Z,13.70
2023-04-20T07:08:05.533Z,13.70
2023-04-20T07:10:32.223Z,13.70
2023-04-20T07:12:58.692Z,13.70
2023-04-20T07:15:25.158Z,13.70
2023-04-20T07:17:51.642Z,13.70
2023-04-20T07:20:18.179Z,13.70
2023-04-20T07:22:44.666Z,13.70
2023-04-20T07:25:11.160Z,13.70
2023-04-20T07:27:37.641Z,13.70
2023-04-20T07:30:04.131Z,13.70
2023-04-20T07:32:30.638Z,13.70
2023-04-20T07:34:57.143Z,13.70
2023-04-20T07:37:25.731Z,13.70
2023-04-20T07:39:53.576Z,13.70
2023-04-20T07:42:20.038Z,13.70
2023-04-20T07:44:46.509Z,13.70
2023-04-20T07:47:13.019Z,13.70
2023-04-20T07:49:39.500Z,13.70
2023-04-20T07:52:15.715Z,13.70
2023-04-20T07:54:43.606Z,13.70
2023-04-20T07:57:10.094Z,13.70
2023-04-20T07:59:41.732Z,13.70
2023-04-20T08:02:08.325Z,13.80
2023-04-20T08:04:35.272Z,13.70
2023-04-20T08:07:02.041Z,13.70
2023-04-20T08:09:28.523Z,13.70
2023-04-20T08:11:55.005Z,13.70
2023-04-20T08:14:21.563Z,13.70
2023-04-20T08:16:48.103Z,13.80
2023-04-20T08:21:45.941Z,13.70
2023-04-20T08:24:12.401Z,13.70
2023-04-20T08:26:38.938Z,13.70
2023-04-20T08:29:05.425Z,13.70
2023-04-20T08:31:31.928Z,13.70
2023-04-20T08:33:58.437Z,13.60
2023-04-20T08:36:24.937Z,13.60
2023-04-20T08:38:51.423Z,13.70
2023-04-20T08:41:17.888Z,13.70
2023-04-20T08:43:44.367Z,13.70
2023-04-20T08:46:11.777Z,13.70
2023-04-20T08:48:38.288Z,13.70
2023-04-20T08:51:04.799Z,13.70
2023-04-20T08:53:31.280Z,13.70
2023-04-20T08:55:57.764Z,13.70
2023-04-20T08:58:24.226Z,13.70
2023-04-20T09:00:53.770Z,13.60
2023-04-20T09:03:20.573Z,13.70
2023-04-20T09:05:47.247Z,13.70
2023-04-20T09:08:13.924Z,13.70
2023-04-20T09:10:40.432Z,13.70
2023-04-20T09:13:06.934Z,13.70
2023-04-20T09:15:33.419Z,13.70
2023-04-20T09:17:59.946Z,13.70
2023-04-20T09:20:26.429Z,13.60
2023-04-20T09:22:52.899Z,13.70
2023-04-20T09:25:19.439Z,13.70
2023-04-20T09:27:46.499Z,13.60
2023-04-20T09:30:12.997Z,13.60
2023-04-20T09:32:41.815Z,13.70
2023-04-20T09:35:08.315Z,13.70
2023-04-20T09:37:34.790Z,13.70
2023-04-20T09:40:01.283Z,13.70
2023-04-20T09:42:27.750Z,13.70
2023-04-20T09:44:54.228Z,13.60
2023-04-20T09:47:20.740Z,13.70
2023-04-20T09:49:47.255Z,13.70
2023-04-20T09:52:13.741Z,13.70
2023-04-20T09:54:40.204Z,13.70
2023-04-20T09:57:06.680Z,13.70
2023-04-20T09:59:33.175Z,13.70
2023-04-20T10:01:59.914Z,13.70
2023-04-20T10:04:26.650Z,13.70
2023-04-20T10:06:53.295Z,13.70
2023-04-20T10:09:19.772Z,13.70
2023-04-20T10:11:53.074Z,13.70
2023-04-20T10:14:21.070Z,13.70
2023-04-20T10:16:47.681Z,13.70
2023-04-20T10:19:14.170Z,13.70
2023-04-20T10:21:40.650Z,13.70
2023-04-20T10:24:07.121Z,13.70
2023-04-20T10:26:33.621Z,13.70
2023-04-20T10:29:00.121Z,13.70
2023-04-20T10:31:26.636Z,13.70
2023-04-20T10:33:53.148Z,13.70
2023-04-20T10:36:19.637Z,13.70
2023-04-20T10:38:46.114Z,13.60
2023-04-20T10:41:12.598Z,13.60
2023-04-20T10:43:39.198Z,13.60
2023-04-20T10:46:05.777Z,13.60
2023-04-20T10:48:32.255Z,13.60
2023-04-20T10:50:58.732Z,13.60
2023-04-20T10:53:25.189Z,13.60
2023-04-20T10:55:51.661Z,13.60
2023-04-20T10:58:18.130Z,13.70
2023-04-20T11:00:44.596Z,13.70
2023-04-20T11:03:11.189Z,13.70
2023-04-20T11:05:37.735Z,13.70
2023-04-20T11:08:04.248Z,13.70
2023-04-20T11:10:33.500Z,13.70
2023-04-20T11:13:06.051Z,13.60
2023-04-20T11:15:32.520Z,13.70
2023-04-20T11:17:58.997Z,13.70
2023-04-20T11:20:25.492Z,13.60
2023-04-20T11:22:54.404Z,13.60
2023-04-20T11:25:21.269Z,13.60
2023-04-20T11:27:47.767Z,13.60
2023-04-20T11:30:14.297Z,13.60
2023-04-20T11:32:40.916Z,13.70
2023-04-20T11:35:07.859Z,13.70
2023-04-20T11:37:34.481Z,13.70
2023-04-20T11:40:00.969Z,13.70
2023-04-20T11:42:27.437Z,13.60
2023-04-20T11:44:53.912Z,13.60
2023-04-20T11:47:24.069Z,13.70
2023-04-20T11:49:50.587Z,13.60
2023-04-20T11:52:17.065Z,13.70
2023-04-20T11:54:47.923Z,13.70
2023-04-20T11:57:14.392Z,13.70
2023-04-20T11:59:40.885Z,13.70
2023-04-20T12:02:07.445Z,13.60
2023-04-20T12:04:34.212Z,13.60
2023-04-20T12:07:00.840Z,13.60
2023-04-20T12:09:27.317Z,13.60
2023-04-20T12:11:53.777Z,13.70
2023-04-20T12:14:23.915Z,13.70
2023-04-20T12:16:50.383Z,13.70
2023-04-20T12:19:17.318Z,13.60
2023-04-20T12:21:43.951Z,13.70
2023-04-20T12:24:10.421Z,13.70
2023-04-20T12:26:38.793Z,13.70
2023-04-20T12:29:05.468Z,13.70
2023-04-20T12:31:32.055Z,13.70
2023-04-20T12:33:58.583Z,13.70
2023-04-20T12:36:25.062Z,13.70
2023-04-20T12:38:51.518Z,13.80
2023-04-20T12:41:17.976Z,13.80
2023-04-20T12:43:44.466Z,13.80
2023-04-20T12:46:10.990Z,13.70
2023-04-20T12:48:37.502Z,13.80
2023-04-20T12:51:05.954Z,13.80
2023-04-20T12:53:32.436Z,13.80
2023-04-20T12:56:01.412Z,13.80
2023-04-20T12:58:28.124Z,13.80
2023-04-20T13:00:54.654Z,13.80
2023-04-20T13:03:21.328Z,13.80
2023-04-20T13:05:48.009Z,13.80
2023-04-20T13:08:14.476Z,13.80
2023-04-20T13:10:40.976Z,13.80
2023-04-20T13:13:07.440Z,13.80
2023-04-20T13:15:39.257Z,13.80
2023-04-20T13:18:06.345Z,13.80
2023-04-20T13:20:35.972Z,13.80
2023-04-20T13:23:02.452Z,13.80
2023-04-20T13:25:28.934Z,13.80
2023-04-20T13:27:55.417Z,13.80
2023-04-20T13:30:23.587Z,13.80
2023-04-20T13:32:50.914Z,13.80
2023-04-20T13:35:17.460Z,13.80
2023-04-20T13:37:43.924Z,13.80
2023-04-20T13:40:10.395Z,13.80
2023-04-20T13:42:36.868Z,13.80
2023-04-20T13:45:03.341Z,13.80
2023-04-20T13:47:29.885Z,13.80
2023-04-20T13:49:56.374Z,13.90
2023-04-20T13:52:22.801Z,13.80
2023-04-20T13:54:49.274Z,13.80
2023-04-20T13:57:15.744Z,13.80
2023-04-20T13:59:42.221Z,13.90
2023-04-20T14:02:08.750Z,13.80
2023-04-20T14:04:35.332Z,13.90
2023-04-20T14:07:01.871Z,13.90
2023-04-20T14:09:28.332Z,13.90
2023-04-20T14:11:57.061Z,13.90
2023-04-20T14:14:23.710Z,13.90
2023-04-20T14:16:50.193Z,13.90
2023-04-20T14:19:16.673Z,13.90
2023-04-20T14:21:43.136Z,14.00
2023-04-20T14:24:09.609Z,14.00
2023-04-20T14:26:36.121Z,14.00
2023-04-20T14:29:02.601Z,14.00
2023-04-20T14:31:29.103Z,14.00
2023-04-20T14:33:55.611Z,14.00
2023-04-20T14:36:22.086Z,14.00
2023-04-20T14:38:48.551Z,14.10
2023-04-20T14:41:15.025Z,14.00
2023-04-20T14:43:41.558Z,14.00
2023-04-20T14:46:08.050Z,14.10
2023-04-20T14:48:36.024Z,14.00
2023-04-20T14:51:02.480Z,14.10
2023-04-20T14:53:29.818Z,14.00
2023-04-20T14:55:56.991Z,14.10
2023-04-20T14:58:23.446Z,14.10
2023-04-20T15:00:54.068Z,14.10
2023-04-20T15:03:20.707Z,14.10
2023-04-20T15:05:47.681Z,14.10
2023-04-20T15:08:14.363Z,14.10
2023-04-20T15:10:40.843Z,14.10
2023-04-20T15:13:07.308Z,14.10
2023-04-20T15:15:46.839Z,14.10
2023-04-20T15:18:14.548Z,14.20
2023-04-20T15:20:41.067Z,14.20
2023-04-20T15:23:07.562Z,14.10
2023-04-20T15:25:34.035Z,14.10
2023-04-20T15:28:06.212Z,14.10
2023-04-20T15:30:32.681Z,14.10
2023-04-20T15:33:04.066Z,14.10
2023-04-20T15:35:31.545Z,14.10
2023-04-20T15:37:58.045Z,14.10
2023-04-20T15:40:24.544Z,14.10
2023-04-20T15:42:51.025Z,14.10
2023-04-20T15:45:17.528Z,14.10
2023-04-20T15:47:44.011Z,14.10
2023-04-20T15:50:10.485Z,14.10
2023-04-20T15:52:36.949Z,14.20
2023-04-20T15:55:03.453Z,14.10
2023-04-20T15:57:29.943Z,14.20
2023-04-20T16:00:00.322Z,14.20
2023-04-20T16:02:26.985Z,14.20
2023-04-20T16:04:53.743Z,14.20
2023-04-20T16:07:20.388Z,14.20
2023-04-20T16:09:46.889Z,14.20
2023-04-20T16:12:13.360Z,14.20
2023-04-20T16:14:39.834Z,14.20
2023-04-20T16:17:06.290Z,14.20
2023-04-20T16:19:32.769Z,14.20
2023-04-20T16:21:59.249Z,14.30
2023-04-20T16:24:25.756Z,14.30
2023-04-20T16:26:52.326Z,14.30
2023-04-20T16:29:18.810Z,14.30
2023-04-20T16:31:45.333Z,14.40
2023-04-20T16:34:11.869Z,14.40
2023-04-20T16:36:38.357Z,14.40
2023-04-20T16:39:04.817Z,14.40
2023-04-20T16:41:31.291Z,14.40
2023-04-20T16:43:57.780Z,14.40
2023-04-20T16:46:24.289Z,14.30
2023-04-20T16:48:50.803Z,14.30
2023-04-20T16:51:17.272Z,14.30
2023-04-20T16:53:43.746Z,14.30
2023-04-20T16:56:11.472Z,14.20
2023-04-20T16:58:38.077Z,14.20
2023-04-20T17:01:04.622Z,14.20
2023-04-20T17:03:31.377Z,14.20
2023-04-20T17:05:57.959Z,14.20
2023-04-20T17:08:24.435Z,14.20
2023-04-20T17:10:50.902Z,14.20
2023-04-20T17:13:17.384Z,14.20
2023-04-20T17:15:43.864Z,14.20
2023-04-20T17:18:10.407Z,14.20
2023-04-20T17:20:36.949Z,14.10
2023-04-20T17:23:03.443Z,14.10
2023-04-20T17:25:29.912Z,14.00
2023-04-20T17:27:56.396Z,14.10
2023-04-20T17:30:22.867Z,14.10
2023-04-20T17:32:49.361Z,14.10
2023-04-20T17:35:15.896Z,14.00
2023-04-20T17:37:42.404Z,14.10
2023-04-20T17:40:08.885Z,14.10
2023-04-20T17:42:35.361Z,14.10
2023-04-20T17:45:01.831Z,14.10
2023-04-20T17:47:28.386Z,14.10
2023-04-20T17:49:54.923Z,14.20
2023-04-20T17:52:21.429Z,14.20
2023-04-20T17:54:47.883Z,14.20
2023-04-20T17:57:14.352Z,14.20
2023-04-20T17:59:40.827Z,14.20
2023-04-20T18:02:07.378Z,14.20
2023-04-20T18:04:34.062Z,14.20
2023-04-20T18:07:00.662Z,14.20
2023-04-20T18:09:27.158Z,14.20
2023-04-20T18:11:53.639Z,14.20
2023-04-20T18:14:20.435Z,14.20
2023-04-20T18:16:47.018Z,14.20
2023-04-20T18:19:13.482Z,14.20
2023-04-20T18:21:39.960Z,14.20
2023-04-20T18:24:06.443Z,14.20
2023-04-20T18:26:32.911Z,14.20
2023-04-20T18:28:59.380Z,14.20
2023-04-20T18:31:25.895Z,14.20
2023-04-20T18:33:52.433Z,14.20
2023-04-20T18:36:18.969Z,14.20
2023-04-20T18:38:45.442Z,14.20
2023-04-20T18:41:12.116Z,14.20
2023-04-20T18:43:38.854Z,14.20
2023-04-20T18:46:05.944Z,14.20
2023-04-20T18:48:32.470Z,14.20
2023-04-20T18:50:58.924Z,14.20
2023-04-20T18:53:25.414Z,14.20
2023-04-20T18:55:51.911Z,14.10
2023-04-20T18:58:18.418Z,14.20
2023-04-20T19:00:44.920Z,14.20
2023-04-20T19:03:11.575Z,14.10
2023-04-20T19:05:38.098Z,14.10
2023-04-20T19:08:04.612Z,14.20
2023-04-20T19:10:31.070Z,14.10
2023-04-20T19:12:57.564Z,14.10
2023-04-20T19:15:24.038Z,14.20
2023-04-20T19:17:50.626Z,14.10
2023-04-20T19:20:17.212Z,14.10
2023-04-20T19:22:43.700Z,14.10
2023-04-20T19:25:10.159Z,14.10
2023-04-20T19:27:36.644Z,14.10
2023-04-20T19:30:03.125Z,14.10
2023-04-20T19:32:29.757Z,14.20
2023-04-20T19:34:56.316Z,14.10
2023-04-20T19:37:22.801Z,14.10
2023-04-20T19:39:49.276Z,14.10
2023-04-20T19:42:15.756Z,14.10
2023-04-20T19:44:42.269Z,14.10
2023-04-20T19:47:08.734Z,14.10
2023-04-20T19:49:36.316Z,14.10
2023-04-20T19:52:02.782Z,14.10
2023-04-20T19:54:29.275Z,14.10
2023-04-20T19:56:55.736Z,14.10
2023-04-20T19:59:22.234Z,14.10
2023-04-20T20:01:50.686Z,14.10
2023-04-20T20:04:17.540Z,14.10
2023-04-20T20:06:44.079Z,14.10
2023-04-20T20:09:10.555Z,14.10
2023-04-20T20:11:37.084Z,14.10
2023-04-20T20:14:03.591Z,14.10
2023-04-20T20:16:30.181Z,14.10
2023-04-20T20:18:56.676Z,14.00
2023-04-20T20:21:23.147Z,14.00
2023-04-20T20:23:49.618Z,14.00
2023-04-20T20:26:16.088Z,14.00
2023-04-20T20:28:42.560Z,14.00
2023-04-20T20:31:09.095Z,14.00
2023-04-20T20:33:35.638Z,14.00
2023-04-20T20:36:02.108Z,14.00
2023-04-20T20:38:28.589Z,14.00
2023-04-20T20:40:55.054Z,13.90
2023-04-20T20:43:21.571Z,13.90
2023-04-20T20:45:48.151Z,13.90
2023-04-20T20:48:14.656Z,13.90
2023-04-20T20:50:41.122Z,14.00
2023-04-20T20:53:07.618Z,14.00
2023-04-20T20:55:34.097Z,13.90
2023-04-20T20:58:00.597Z,13.90
2023-04-20T21:00:27.155Z,13.90
2023-04-20T21:02:53.838Z,13.90
2023-04-20T21:05:20.457Z,13.90
2023-04-20T21:07:46.930Z,13.90
2023-04-20T21:10:13.435Z,13.90
2023-04-20T21:12:42.998Z,13.90
2023-04-20T21:15:09.492Z,13.90
2023-04-20T21:17:35.999Z,13.90
2023-04-20T21:20:02.520Z,13.90
2023-04-20T21:22:28.984Z,13.90
2023-04-20T21:25:00.385Z,13.90
2023-04-20T21:27:26.859Z,13.90
2023-04-20T21:29:53.345Z,13.90
2023-04-20T21:32:19.861Z,13.90
2023-04-20T21:34:46.371Z,13.90
2023-04-20T21:37:12.836Z,13.90
2023-04-20T21:39:39.324Z,13.90
2023-04-20T21:42:05.799Z,13.90
2023-04-20T21:44:32.290Z,13.90
2023-04-20T21:46:58.766Z,13.90
2023-04-20T21:49:25.241Z,13.90
2023-04-20T21:51:51.719Z,13.90
2023-04-20T21:54:18.209Z,13.90
2023-04-20T21:56:44.681Z,13.90
2023-04-20T21:59:11.183Z,13.90
2023-04-20T22:01:37.732Z,13.80
2023-04-20T22:04:04.561Z,13.90
2023-04-20T22:06:31.237Z,13.90
2023-04-20T22:08:57.722Z,13.90
2023-04-20T22:11:24.182Z,13.90
2023-04-20T22:13:50.678Z,13.90
2023-04-20T22:16:17.195Z,13.90
2023-04-20T22:18:43.698Z,13.90
2023-04-20T22:21:10.160Z,13.90
2023-04-20T22:23:36.688Z,13.80
2023-04-20T22:26:03.160Z,13.90
2023-04-20T22:28:29.654Z,13.90
2023-04-20T22:30:56.162Z,13.90
2023-04-20T22:33:22.709Z,13.90
2023-04-20T22:35:49.185Z,13.90
2023-04-20T22:38:15.664Z,13.90
2023-04-20T22:40:42.140Z,13.90
2023-04-20T22:43:08.599Z,13.90
2023-04-20T22:45:35.073Z,13.90
2023-04-20T22:48:01.632Z,13.90
2023-04-20T22:50:28.127Z,13.90
2023-04-20T22:52:54.591Z,13.90
2023-04-20T22:55:21.096Z,13.90
2023-04-20T22:57:48.671Z,13.90
2023-04-20T23:00:18.493Z,13.90
2023-04-20T23:02:45.089Z,13.90
2023-04-20T23:05:11.712Z,13.90
2023-04-20T23:07:38.166Z,13.90
2023-04-20T23:10:04.655Z,13.90
2023-04-20T23:12:31.117Z,13.80
2023-04-20T23:14:57.626Z,13.90
2023-04-20T23:17:24.136Z,13.80
2023-04-20T23:19:50.654Z,13.80
2023-04-20T23:22:17.101Z,13.80
2023-04-20T23:24:43.614Z,13.80
2023-04-20T23:27:10.072Z,13.80
2023-04-20T23:29:36.573Z,13.90
2023-04-20T23:32:03.243Z,13.90
2023-04-20T23:34:29.837Z,13.80
2023-04-20T23:36:56.336Z,13.80
2023-04-20T23:39:22.841Z,13.80
2023-04-20T23:41:49.323Z,13.90
2023-04-20T23:44:15.803Z,13.90
2023-04-20T23:46:42.270Z,13.80
2023-04-20T23:49:08.734Z,13.90
2023-04-20T23:51:35.215Z,13.80
2023-04-20T23:54:01.693Z,13.80
2023-04-20T23:56:28.172Z,13.90
2023-04-20T23:58:54.652Z,13.80
